createdAt,value
2023-02-22T00:39:15.384Z,63.43
2023-02-22T00:41:52.473Z,64.62
2023-02-22T00:45:36.247Z,64.85
2023-02-22T00:50:32.052Z,66.38
2023-02-22T00:53:37.984Z,67.67
2023-02-22T00:56:37.826Z,67.90
2023-02-22T00:59:11.195Z,67.04
2023-02-22T01:05:28.501Z,68.50
2023-02-22T01:11:56.397Z,69.88
2023-02-22T01:15:02.525Z,69.73
2023-02-22T01:20:27.697Z,70.90
2023-02-22T01:33:03.835Z,71.46
2023-02-22T01:35:44.201Z,72.23
2023-02-22T01:44:39.794Z,70.81
2023-02-22T01:47:38.405Z,68.92
2023-02-22T01:50:11.616Z,70.93
2023-02-22T01:52:51.925Z,70.84
2023-02-22T01:55:25.813Z,70.08
2023-02-22T01:58:18.319Z,70.83
2023-02-22T02:00:52.951Z,70.38
2023-02-22T03:28:15.690Z,85.34
2023-02-22T03:39:08.446Z,85.45
2023-02-22T03:49:28.012Z,87.08
2023-02-22T03:56:05.919Z,86.41
2023-02-22T04:02:09.374Z,87.83
2023-02-22T04:04:43.890Z,87.99
2023-02-22T04:07:28.811Z,87.69
2023-02-22T04:10:52.839Z,87.81
2023-02-22T04:13:29.398Z,87.29
2023-02-22T04:15:57.021Z,87.11
2023-02-22T04:19:00.203Z,87.26
2023-02-22T04:21:27.922Z,87.68
2023-02-22T04:23:57.859Z,88.15
2023-02-22T04:29:29.086Z,87.56
2023-02-22T04:32:05.913Z,88.79
2023-02-22T04:37:30.827Z,88.95
2023-02-22T04:40:16.750Z,89.21
2023-02-22T04:42:43.633Z,89.23
2023-02-22T04:45:13.825Z,87.13
2023-02-22T04:47:41.101Z,89.14
2023-02-22T04:50:12.322Z,89.33
2023-02-22T04:52:42.714Z,91.03
2023-02-22T04:55:11.216Z,90.57
2023-02-22T04:57:38.264Z,91.61
2023-02-22T05:00:06.926Z,92.01
2023-02-22T05:02:39.482Z,91.92
2023-02-22T05:05:06.828Z,93.33
2023-02-22T05:07:39.921Z,93.35
2023-02-22T05:10:07.031Z,92.37
2023-02-22T05:12:42.926Z,92.22
2023-02-22T05:15:28.486Z,92.75
2023-02-22T05:17:55.621Z,93.17
2023-02-22T05:20:30.954Z,91.97
2023-02-22T05:27:02.986Z,93.20
2023-02-22T05:33:21.339Z,92.36
2023-02-22T05:35:58.823Z,92.59
2023-02-22T05:39:40.680Z,92.76
2023-02-22T05:46:10.385Z,93.22
2023-02-22T05:49:10.492Z,93.00
2023-02-22T05:52:26.102Z,93.48
2023-02-22T05:54:53.601Z,93.44
2023-02-22T05:57:25.977Z,93.12
2023-02-22T06:04:09.373Z,93.49
2023-02-22T06:06:36.794Z,94.29
2023-02-22T06:09:06.922Z,94.38
2023-02-22T06:13:02.976Z,94.82
2023-02-22T06:15:33.857Z,94.06
2023-02-22T06:18:04.004Z,94.28
2023-02-22T06:20:37.187Z,93.32
2023-02-22T06:23:10.194Z,94.14
2023-02-22T06:25:49.619Z,93.65
2023-02-22T06:28:42.801Z,92.35
2023-02-22T06:31:10.264Z,92.67
2023-02-22T06:33:37.484Z,90.67
2023-02-22T06:36:15.268Z,89.99
2023-02-22T06:38:42.140Z,89.71
2023-02-22T06:41:27.825Z,89.84
2023-02-22T06:44:01.169Z,89.93
2023-02-22T06:46:28.065Z,89.80
2023-02-22T06:48:55.657Z,89.24
2023-02-22T06:51:23.270Z,88.68
2023-02-22T06:53:50.186Z,87.82
2023-02-22T06:56:17.184Z,88.68
2023-02-22T06:59:10.227Z,86.48
2023-02-22T07:02:00.130Z,83.23
2023-02-22T07:04:26.901Z,82.55
2023-02-22T07:06:57.373Z,81.92
2023-02-22T07:09:24.145Z,80.15
2023-02-22T07:11:51.759Z,79.77
2023-02-22T07:14:31.957Z,78.79
2023-02-22T07:20:08.692Z,71.24
2023-02-22T07:25:38.998Z,64.44
2023-02-22T07:28:18.135Z,61.72
2023-02-22T07:30:48.473Z,60.34
2023-02-22T07:33:21.497Z,58.07
2023-02-22T07:35:50.904Z,56.32
2023-02-22T07:38:26.409Z,56.11
2023-02-22T07:41:07.969Z,53.87
2023-02-22T07:44:13.377Z,52.58
2023-02-22T07:46:40.318Z,52.41
2023-02-22T07:49:10.449Z,52.17
2023-02-22T07:51:38.654Z,50.86
2023-02-22T07:54:07.652Z,50.67
2023-02-22T07:56:37.685Z,49.65
2023-02-22T07:59:12.868Z,48.97
2023-02-22T08:01:40.141Z,48.41
2023-02-22T08:04:28.683Z,48.12
2023-02-22T08:06:58.258Z,48.23
2023-02-22T08:09:32.869Z,46.99
2023-02-22T08:11:59.700Z,45.98
2023-02-22T08:14:26.497Z,47.13
2023-02-22T08:16:56.068Z,47.25
2023-02-22T08:19:23.077Z,46.38
2023-02-22T08:21:58.982Z,46.41
2023-02-22T08:24:25.909Z,46.44
2023-02-22T08:26:56.737Z,46.59
2023-02-22T08:29:35.881Z,46.57
2023-02-22T08:32:11.090Z,46.02
2023-02-22T08:34:41.772Z,45.89
2023-02-22T08:45:07.279Z,45.30
2023-02-22T08:47:57.778Z,44.40
2023-02-22T08:50:47.129Z,44.88
2023-02-22T08:53:24.474Z,44.56
2023-02-22T08:58:55.043Z,44.58
2023-02-22T09:01:37.076Z,44.42
2023-02-22T09:04:05.691Z,44.50
2023-02-22T09:07:00.212Z,44.12
2023-02-22T09:09:32.354Z,44.02
2023-02-22T09:12:10.825Z,43.26
2023-02-22T09:14:37.909Z,43.43
2023-02-22T09:17:17.746Z,42.93
2023-02-22T09:19:48.795Z,43.32
2023-02-22T09:22:18.104Z,42.40
2023-02-22T09:24:51.390Z,42.78
2023-02-22T09:27:22.576Z,43.13
2023-02-22T09:29:53.268Z,42.52
2023-02-22T09:32:20.780Z,42.47
2023-02-22T09:34:56.541Z,42.13
2023-02-22T09:37:24.159Z,42.18
2023-02-22T09:39:54.312Z,42.57
2023-02-22T09:42:36.749Z,41.87
2023-02-22T09:45:18.824Z,42.37
2023-02-22T09:47:57.652Z,42.64
2023-02-22T09:50:59.185Z,43.13
2023-02-22T09:53:51.254Z,42.59
2023-02-22T09:56:31.024Z,42.16
2023-02-22T09:59:07.531Z,43.52
2023-02-22T10:01:51.097Z,41.94
2023-02-22T10:04:56.171Z,41.80
2023-02-22T10:07:57.811Z,42.13
2023-02-22T10:11:08.469Z,40.96
2023-02-22T10:13:58.150Z,40.64
2023-02-22T10:16:40.648Z,41.25
2023-02-22T10:19:46.882Z,40.90
2023-02-22T10:22:37.626Z,41.52
2023-02-22T10:25:13.960Z,41.74
2023-02-22T10:28:01.073Z,40.70
2023-02-22T10:30:36.999Z,41.41
2023-02-22T10:33:26.826Z,40.30
2023-02-22T10:35:56.677Z,41.98
2023-02-22T10:38:24.783Z,41.15
2023-02-22T10:41:24.290Z,40.51
2023-02-22T10:44:00.592Z,41.78
2023-02-22T10:46:34.562Z,41.31
2023-02-22T10:49:10.150Z,42.03
2023-02-22T10:51:59.659Z,41.16
2023-02-22T10:54:34.003Z,40.74
2023-02-22T10:57:09.999Z,40.57
2023-02-22T10:59:47.868Z,39.91
2023-02-22T11:02:33.368Z,41.20
2023-02-22T11:05:04.774Z,40.33
2023-02-22T11:07:41.083Z,40.14
2023-02-22T11:10:10.084Z,40.44
2023-02-22T11:12:48.745Z,40.46
2023-02-22T11:15:34.263Z,39.58
2023-02-22T11:18:07.513Z,39.36
2023-02-22T11:20:43.303Z,39.61
2023-02-22T11:23:10.934Z,39.25
2023-02-22T11:25:43.927Z,39.54
2023-02-22T11:28:31.366Z,40.46
2023-02-22T11:30:59.724Z,39.76
2023-02-22T11:33:29.717Z,39.35
2023-02-22T11:39:01.777Z,39.59
2023-02-22T11:41:35.918Z,39.39
2023-02-22T11:44:28.781Z,39.42
2023-02-22T11:47:16.153Z,39.57
2023-02-22T11:49:47.635Z,40.46
2023-02-22T11:52:28.861Z,39.66
2023-02-22T11:55:36.329Z,39.92
2023-02-22T11:58:33.533Z,39.03
2023-02-22T12:01:33.816Z,38.87
2023-02-22T12:04:29.782Z,37.71
2023-02-22T12:07:20.667Z,38.65
2023-02-22T12:10:15.176Z,38.55
2023-02-22T12:13:02.107Z,38.96
2023-02-22T12:15:42.774Z,38.71
2023-02-22T12:18:26.226Z,38.60
2023-02-22T12:25:38.230Z,38.72
2023-02-22T12:28:24.262Z,39.00
2023-02-22T12:31:17.285Z,38.53
2023-02-22T12:34:00.782Z,39.22
2023-02-22T12:36:40.537Z,38.53
2023-02-22T12:39:52.327Z,38.34
2023-02-22T12:43:03.954Z,37.58
2023-02-22T12:45:47.878Z,38.80
2023-02-22T12:48:36.480Z,38.78
2023-02-22T12:51:31.581Z,39.32
2023-02-22T12:54:22.581Z,39.72
2023-02-22T12:56:59.193Z,40.03
2023-02-22T13:03:18.373Z,39.61
2023-02-22T13:05:55.620Z,40.23
2023-02-22T13:08:52.703Z,39.13
2023-02-22T13:11:57.362Z,40.10
2023-02-22T13:14:59.257Z,39.39
2023-02-22T13:17:56.020Z,40.06
2023-02-22T13:20:53.857Z,39.93
2023-02-22T13:23:26.991Z,39.55
2023-02-22T13:25:58.252Z,39.08
2023-02-22T13:29:27.635Z,38.55
2023-02-22T13:32:55.745Z,39.15
2023-02-22T13:35:35.451Z,39.26
2023-02-22T13:39:14.817Z,40.33
2023-02-22T13:41:56.369Z,39.90
2023-02-22T13:45:09.696Z,39.39
2023-02-22T13:49:20.491Z,40.16
2023-02-22T13:51:47.351Z,40.07
2023-02-22T13:54:53.851Z,40.37
2023-02-22T14:00:54.329Z,39.87
2023-02-22T14:10:37.942Z,40.97
2023-02-22T14:21:25.520Z,43.25
2023-02-22T14:24:35.799Z,43.43
2023-02-22T14:30:02.007Z,42.60
2023-02-22T14:35:58.257Z,42.93
2023-02-22T14:38:31.736Z,43.33
2023-02-22T14:41:42.445Z,42.95
2023-02-22T14:44:43.430Z,42.97
2023-02-22T14:48:42.585Z,42.58
2023-02-22T14:51:58.805Z,41.25
2023-02-22T14:54:46.718Z,42.21
2023-02-22T14:57:27.416Z,42.07
2023-02-22T15:00:31.560Z,42.19
2023-02-22T15:03:02.058Z,43.41
2023-02-22T15:05:41.580Z,43.40
2023-02-22T15:08:09.601Z,43.94
2023-02-22T15:10:45.878Z,43.31
2023-02-22T15:13:33.225Z,44.66
2023-02-22T15:16:08.245Z,45.20
2023-02-22T15:18:43.651Z,45.10
2023-02-22T15:24:08.409Z,45.32
2023-02-22T15:27:01.123Z,46.26
2023-02-22T15:29:44.917Z,46.38
2023-02-22T15:32:36.929Z,46.98
2023-02-22T15:35:43.942Z,47.29
2023-02-22T15:38:14.624Z,48.00
2023-02-22T15:40:46.282Z,48.88
2023-02-22T15:43:24.339Z,49.48
2023-02-22T15:45:52.468Z,50.38
2023-02-22T15:48:26.115Z,51.61
2023-02-22T15:51:14.099Z,52.52
2023-02-22T15:54:02.392Z,52.84
2023-02-22T15:59:20.968Z,54.88
2023-02-22T16:01:51.716Z,54.50
2023-02-22T16:04:28.369Z,55.25
2023-02-22T16:07:07.188Z,56.13
2023-02-22T16:09:35.396Z,57.94
2023-02-22T16:12:49.442Z,58.37
2023-02-22T16:15:39.246Z,59.55
2023-02-22T16:18:48.212Z,60.64
2023-02-22T16:21:27.624Z,61.56
2023-02-22T16:24:13.894Z,61.68
2023-02-22T16:27:34.834Z,63.34
2023-02-22T16:30:46.108Z,64.37
2023-02-22T16:33:22.678Z,65.25
2023-02-22T16:35:57.509Z,66.06
2023-02-22T16:38:36.251Z,66.49
2023-02-22T16:45:50.874Z,67.87
2023-02-22T17:04:00.907Z,71.88
2023-02-22T17:11:22.561Z,73.66
2023-02-22T17:24:18.984Z,75.45
2023-02-22T17:27:44.673Z,76.44
2023-02-22T17:30:14.108Z,76.48
2023-02-22T17:33:21.152Z,77.12
2023-02-22T17:36:05.751Z,77.24
2023-02-22T17:50:33.629Z,78.63
2023-02-22T18:05:07.521Z,80.85
2023-02-22T18:07:35.084Z,81.59
2023-02-22T18:10:46.273Z,81.96
2023-02-22T18:13:19.362Z,82.17
2023-02-22T18:15:49.528Z,81.54
2023-02-22T18:18:23.347Z,81.37
2023-02-22T18:23:47.768Z,82.38
2023-02-22T18:26:30.712Z,82.17
2023-02-22T18:29:13.106Z,82.27
2023-02-22T18:31:47.837Z,83.71
2023-02-22T18:34:18.040Z,83.97
2023-02-22T18:36:45.278Z,82.88
2023-02-22T18:40:08.787Z,83.69
2023-02-22T18:47:33.652Z,83.72
2023-02-22T18:50:00.857Z,83.48
2023-02-22T18:52:55.280Z,84.21
2023-02-22T18:58:54.371Z,84.04
2023-02-22T19:14:39.311Z,86.03
2023-02-22T19:23:34.928Z,86.14
2023-02-22T19:26:10.045Z,86.61
2023-02-22T19:28:37.817Z,86.60
2023-02-22T19:31:20.938Z,86.07
2023-02-22T19:33:52.884Z,86.65
2023-02-22T19:36:23.278Z,87.43
2023-02-22T19:46:15.171Z,87.51
2023-02-22T19:52:25.424Z,86.16
2023-02-22T19:58:26.870Z,88.03
2023-02-22T20:05:41.775Z,88.75
2023-02-22T20:08:39.577Z,88.67
2023-02-22T20:18:35.162Z,90.16
2023-02-22T20:22:09.949Z,90.02
2023-02-22T20:26:05.067Z,90.37
2023-02-22T21:15:56.150Z,90.93
2023-02-22T21:34:07.938Z,92.67
2023-02-22T21:36:42.094Z,92.53
2023-02-22T21:39:39.454Z,91.92
2023-02-22T21:42:36.242Z,91.98
2023-02-22T21:50:15.302Z,91.42
2023-02-22T22:03:35.679Z,92.06
2023-02-22T22:18:00.511Z,92.41
2023-02-22T22:51:49.649Z,94.71
2023-02-22T22:54:22.995Z,95.41
2023-02-22T22:57:09.676Z,94.71
2023-02-22T23:06:36.314Z,94.79
2023-02-22T23:09:26.420Z,94.31
2023-02-22T23:12:31.192Z,93.90
2023-02-22T23:15:21.337Z,94.06
2023-02-22T23:17:48.565Z,94.64
2023-02-22T23:20:39.633Z,93.92
2023-02-22T23:26:50.424Z,93.85
2023-02-22T23:29:28.712Z,94.05
2023-02-22T23:31:56.404Z,94.12
2023-02-22T23:38:26.709Z,93.94
2023-02-22T23:41:15.100Z,94.43
